sensor_id;sensor_type;location;lat;lon;timestamp;P1;durP1;ratioP1;P2;durP2;ratioP2
1380;SDS011;684;48.342;10.096;2023-06-22T00:01:17;15.87;;;10.97;;
1380;SDS011;684;48.342;10.096;2023-06-22T00:03:44;16.80;;;11.07;;
1380;SDS011;684;48.342;10.096;2023-06-22T00:06:11;15.50;;;10.77;;
1380;SDS011;684;48.342;10.096;2023-06-22T00:08:38;19.37;;;12.63;;
1380;SDS011;684;48.342;10.096;2023-06-22T00:11:05;18.00;;;12.07;;
1380;SDS011;684;48.342;10.096;2023-06-22T00:13:33;16.67;;;11.03;;
1380;SDS011;684;48.342;10.096;2023-06-22T00:16:00;15.97;;;12.40;;
1380;SDS011;684;48.342;10.096;2023-06-22T00:18:27;17.70;;;12.07;;
1380;SDS011;684;48.342;10.096;2023-06-22T00:20:55;16.90;;;12.97;;
1380;SDS011;684;48.342;10.096;2023-06-22T00:23:23;19.67;;;14.47;;
1380;SDS011;684;48.342;10.096;2023-06-22T00:25:51;26.43;;;14.83;;
1380;SDS011;684;48.342;10.096;2023-06-22T00:28:17;21.73;;;14.80;;
1380;SDS011;684;48.342;10.096;2023-06-22T00:30:46;23.40;;;13.43;;
1380;SDS011;684;48.342;10.096;2023-06-22T00:33:13;20.43;;;15.30;;
1380;SDS011;684;48.342;10.096;2023-06-22T00:35:41;25.47;;;18.73;;
1380;SDS011;684;48.342;10.096;2023-06-22T00:38:07;23.70;;;18.63;;
1380;SDS011;684;48.342;10.096;2023-06-22T00:40:34;29.10;;;18.50;;
1380;SDS011;684;48.342;10.096;2023-06-22T00:43:02;19.60;;;14.20;;
1380;SDS011;684;48.342;10.096;2023-06-22T00:45:29;19.23;;;15.40;;
1380;SDS011;684;48.342;10.096;2023-06-22T00:47:58;22.50;;;16.90;;
1380;SDS011;684;48.342;10.096;2023-06-22T00:50:26;21.07;;;16.80;;
1380;SDS011;684;48.342;10.096;2023-06-22T00:52:58;21.77;;;16.33;;
1380;SDS011;684;48.342;10.096;2023-06-22T00:55:27;25.20;;;17.53;;
1380;SDS011;684;48.342;10.096;2023-06-22T00:57:54;22.17;;;16.60;;
1380;SDS011;684;48.342;10.096;2023-06-22T01:00:22;21.93;;;15.90;;
1380;SDS011;684;48.342;10.096;2023-06-22T01:02:50;23.00;;;16.30;;
1380;SDS011;684;48.342;10.096;2023-06-22T01:05:18;23.67;;;17.33;;
1380;SDS011;684;48.342;10.096;2023-06-22T01:07:49;25.57;;;16.67;;
1380;SDS011;684;48.342;10.096;2023-06-22T01:10:27;28.87;;;18.60;;
1380;SDS011;684;48.342;10.096;2023-06-22T01:13:01;23.30;;;17.60;;
1380;SDS011;684;48.342;10.096;2023-06-22T01:15:31;23.93;;;18.63;;
1380;SDS011;684;48.342;10.096;2023-06-22T01:18:02;26.73;;;18.67;;
1380;SDS011;684;48.342;10.096;2023-06-22T01:20:33;23.30;;;18.30;;
1380;SDS011;684;48.342;10.096;2023-06-22T01:23:07;26.53;;;18.50;;
1380;SDS011;684;48.342;10.096;2023-06-22T01:25:38;29.87;;;20.33;;
1380;SDS011;684;48.342;10.096;2023-06-22T01:28:15;23.50;;;19.07;;
1380;SDS011;684;48.342;10.096;2023-06-22T01:30:51;25.73;;;18.30;;
1380;SDS011;684;48.342;10.096;2023-06-22T01:33:31;24.67;;;17.83;;
1380;SDS011;684;48.342;10.096;2023-06-22T01:36:00;23.80;;;18.57;;
1380;SDS011;684;48.342;10.096;2023-06-22T01:38:28;22.93;;;18.13;;
1380;SDS011;684;48.342;10.096;2023-06-22T01:40:55;22.60;;;19.27;;
1380;SDS011;684;48.342;10.096;2023-06-22T01:43:24;24.53;;;17.73;;
1380;SDS011;684;48.342;10.096;2023-06-22T01:45:54;25.20;;;18.60;;
1380;SDS011;684;48.342;10.096;2023-06-22T01:48:22;28.50;;;19.30;;
1380;SDS011;684;48.342;10.096;2023-06-22T01:50:50;23.67;;;16.97;;
1380;SDS011;684;48.342;10.096;2023-06-22T01:53:18;23.27;;;17.17;;
1380;SDS011;684;48.342;10.096;2023-06-22T01:55:46;38.27;;;20.33;;
1380;SDS011;684;48.342;10.096;2023-06-22T01:58:12;24.17;;;18.80;;
1380;SDS011;684;48.342;10.096;2023-06-22T02:00:40;24.27;;;18.00;;
1380;SDS011;684;48.342;10.096;2023-06-22T02:03:17;20.53;;;17.43;;
1380;SDS011;684;48.342;10.096;2023-06-22T02:05:49;21.37;;;16.27;;
1380;SDS011;684;48.342;10.096;2023-06-22T02:08:19;21.73;;;16.20;;
1380;SDS011;684;48.342;10.096;2023-06-22T02:10:48;24.70;;;17.63;;
1380;SDS011;684;48.342;10.096;2023-06-22T02:13:16;23.70;;;17.37;;
1380;SDS011;684;48.342;10.096;2023-06-22T02:15:44;19.10;;;15.87;;
1380;SDS011;684;48.342;10.096;2023-06-22T02:18:12;22.50;;;16.87;;
1380;SDS011;684;48.342;10.096;2023-06-22T02:20:40;26.43;;;17.60;;
1380;SDS011;684;48.342;10.096;2023-06-22T02:23:07;27.20;;;18.97;;
1380;SDS011;684;48.342;10.096;2023-06-22T02:25:34;23.67;;;16.97;;
1380;SDS011;684;48.342;10.096;2023-06-22T02:28:01;21.03;;;16.00;;
1380;SDS011;684;48.342;10.096;2023-06-22T02:30:29;22.90;;;17.30;;
1380;SDS011;684;48.342;10.096;2023-06-22T02:32:56;22.70;;;16.43;;
1380;SDS011;684;48.342;10.096;2023-06-22T02:35:24;21.83;;;16.77;;
1380;SDS011;684;48.342;10.096;2023-06-22T02:37:53;24.27;;;17.57;;
1380;SDS011;684;48.342;10.096;2023-06-22T02:40:19;25.60;;;16.00;;
1380;SDS011;684;48.342;10.096;2023-06-22T02:42:46;24.60;;;17.23;;
1380;SDS011;684;48.342;10.096;2023-06-22T02:45:13;21.40;;;16.40;;
1380;SDS011;684;48.342;10.096;2023-06-22T02:47:40;24.43;;;15.63;;
1380;SDS011;684;48.342;10.096;2023-06-22T02:50:07;21.40;;;16.43;;
1380;SDS011;684;48.342;10.096;2023-06-22T02:52:34;23.33;;;16.00;;
1380;SDS011;684;48.342;10.096;2023-06-22T02:55:02;25.00;;;16.50;;
1380;SDS011;684;48.342;10.096;2023-06-22T02:57:29;18.77;;;14.97;;
1380;SDS011;684;48.342;10.096;2023-06-22T02:59:56;21.60;;;16.20;;
1380;SDS011;684;48.342;10.096;2023-06-22T03:02:23;26.03;;;16.90;;
1380;SDS011;684;48.342;10.096;2023-06-22T03:04:51;22.30;;;15.90;;
1380;SDS011;684;48.342;10.096;2023-06-22T03:07:18;22.23;;;15.73;;
1380;SDS011;684;48.342;10.096;2023-06-22T03:09:45;26.97;;;16.83;;
1380;SDS011;684;48.342;10.096;2023-06-22T03:12:13;25.70;;;17.60;;
1380;SDS011;684;48.342;10.096;2023-06-22T03:14:40;22.70;;;15.80;;
1380;SDS011;684;48.342;10.096;2023-06-22T03:17:06;22.80;;;16.43;;
1380;SDS011;684;48.342;10.096;2023-06-22T03:19:33;20.50;;;15.67;;
1380;SDS011;684;48.342;10.096;2023-06-22T03:22:00;26.73;;;17.10;;
1380;SDS011;684;48.342;10.096;2023-06-22T03:24:27;25.63;;;17.30;;
1380;SDS011;684;48.342;10.096;2023-06-22T03:26:54;24.43;;;17.10;;
1380;SDS011;684;48.342;10.096;2023-06-22T03:29:22;23.20;;;15.57;;
1380;SDS011;684;48.342;10.096;2023-06-22T03:31:50;24.20;;;16.87;;
1380;SDS011;684;48.342;10.096;2023-06-22T03:34:17;27.53;;;16.67;;
1380;SDS011;684;48.342;10.096;2023-06-22T03:36:44;25.53;;;16.80;;
1380;SDS011;684;48.342;10.096;2023-06-22T03:39:11;24.93;;;15.53;;
1380;SDS011;684;48.342;10.096;2023-06-22T03:41:38;27.70;;;15.67;;
1380;SDS011;684;48.342;10.096;2023-06-22T03:44:04;25.50;;;15.20;;
1380;SDS011;684;48.342;10.096;2023-06-22T03:46:33;22.03;;;15.50;;
1380;SDS011;684;48.342;10.096;2023-06-22T03:48:59;21.57;;;16.37;;
1380;SDS011;684;48.342;10.096;2023-06-22T03:51:28;23.47;;;17.20;;
1380;SDS011;684;48.342;10.096;2023-06-22T03:53:55;18.37;;;14.43;;
1380;SDS011;684;48.342;10.096;2023-06-22T03:56:21;21.07;;;16.17;;
1380;SDS011;684;48.342;10.096;2023-06-22T03:58:48;25.53;;;16.63;;
1380;SDS011;684;48.342;10.096;2023-06-22T04:01:15;22.53;;;16.40;;
1380;SDS011;684;48.342;10.096;2023-06-22T04:03:44;24.00;;;16.03;;
1380;SDS011;684;48.342;10.096;2023-06-22T04:06:13;22.83;;;16.57;;
1380;SDS011;684;48.342;10.096;2023-06-22T04:08:39;21.90;;;16.97;;
1380;SDS011;684;48.342;10.096;2023-06-22T04:11:07;25.13;;;16.10;;
1380;SDS011;684;48.342;10.096;2023-06-22T04:13:33;19.67;;;15.03;;
1380;SDS011;684;48.342;10.096;2023-06-22T04:16:00;27.80;;;16.40;;
1380;SDS011;684;48.342;10.096;2023-06-22T04:18:27;24.13;;;16.77;;
1380;SDS011;684;48.342;10.096;2023-06-22T04:20:55;21.70;;;15.17;;
1380;SDS011;684;48.342;10.096;2023-06-22T04:23:22;22.27;;;15.03;;
1380;SDS011;684;48.342;10.096;2023-06-22T04:25:48;21.70;;;15.50;;
1380;SDS011;684;48.342;10.096;2023-06-22T04:28:16;20.27;;;15.10;;
1380;SDS011;684;48.342;10.096;2023-06-22T04:30:43;22.83;;;14.47;;
1380;SDS011;684;48.342;10.096;2023-06-22T04:33:12;24.63;;;15.70;;
1380;SDS011;684;48.342;10.096;2023-06-22T04:35:39;20.90;;;15.07;;
1380;SDS011;684;48.342;10.096;2023-06-22T04:38:08;23.77;;;15.87;;
1380;SDS011;684;48.342;10.096;2023-06-22T04:40:38;20.17;;;13.50;;
1380;SDS011;684;48.342;10.096;2023-06-22T04:43:05;16.80;;;12.43;;
1380;SDS011;684;48.342;10.096;2023-06-22T04:45:31;17.23;;;11.77;;
1380;SDS011;684;48.342;10.096;2023-06-22T04:47:58;18.17;;;12.50;;
1380;SDS011;684;48.342;10.096;2023-06-22T04:50:25;18.80;;;11.97;;
1380;SDS011;684;48.342;10.096;2023-06-22T04:52:52;19.50;;;12.43;;
1380;SDS011;684;48.342;10.096;2023-06-22T04:55:20;17.43;;;12.00;;
1380;SDS011;684;48.342;10.096;2023-06-22T04:57:47;18.30;;;12.67;;
1380;SDS011;684;48.342;10.096;2023-06-22T05:00:15;16.90;;;11.80;;
1380;SDS011;684;48.342;10.096;2023-06-22T05:02:43;18.17;;;11.33;;
1380;SDS011;684;48.342;10.096;2023-06-22T05:05:11;13.80;;;10.70;;
1380;SDS011;684;48.342;10.096;2023-06-22T05:07:40;15.30;;;10.97;;
1380;SDS011;684;48.342;10.096;2023-06-22T05:10:08;17.10;;;10.83;;
1380;SDS011;684;48.342;10.096;2023-06-22T05:12:37;16.93;;;11.77;;
1380;SDS011;684;48.342;10.096;2023-06-22T05:15:05;19.00;;;11.43;;
1380;SDS011;684;48.342;10.096;2023-06-22T05:17:33;15.93;;;11.53;;
1380;SDS011;684;48.342;10.096;2023-06-22T05:20:00;18.30;;;11.80;;
1380;SDS011;684;48.342;10.096;2023-06-22T05:22:27;22.00;;;12.07;;
1380;SDS011;684;48.342;10.096;2023-06-22T05:24:54;15.70;;;12.13;;
1380;SDS011;684;48.342;10.096;2023-06-22T05:27:21;13.80;;;10.70;;
1380;SDS011;684;48.342;10.096;2023-06-22T05:29:49;11.80;;;9.60;;
1380;SDS011;684;48.342;10.096;2023-06-22T05:32:15;12.00;;;10.00;;
1380;SDS011;684;48.342;10.096;2023-06-22T05:34:42;14.77;;;10.20;;
1380;SDS011;684;48.342;10.096;2023-06-22T05:37:09;14.63;;;9.63;;
1380;SDS011;684;48.342;10.096;2023-06-22T05:39:35;12.57;;;10.53;;
1380;SDS011;684;48.342;10.096;2023-06-22T05:42:04;15.80;;;9.30;;
1380;SDS011;684;48.342;10.096;2023-06-22T05:44:31;13.50;;;8.33;;
1380;SDS011;684;48.342;10.096;2023-06-22T05:47:00;13.63;;;9.03;;
1380;SDS011;684;48.342;10.096;2023-06-22T05:49:27;11.50;;;8.70;;
1380;SDS011;684;48.342;10.096;2023-06-22T05:51:57;14.80;;;8.07;;
1380;SDS011;684;48.342;10.096;2023-06-22T05:54:24;15.33;;;9.23;;
1380;SDS011;684;48.342;10.096;2023-06-22T05:56:51;11.87;;;8.73;;
1380;SDS011;684;48.342;10.096;2023-06-22T05:59:17;11.67;;;8.90;;
1380;SDS011;684;48.342;10.096;2023-06-22T06:01:44;15.30;;;9.60;;
1380;SDS011;684;48.342;10.096;2023-06-22T06:04:16;11.03;;;8.60;;
1380;SDS011;684;48.342;10.096;2023-06-22T06:06:43;13.47;;;8.70;;
1380;SDS011;684;48.342;10.096;2023-06-22T06:09:09;13.70;;;9.10;;
1380;SDS011;684;48.342;10.096;2023-06-22T06:11:37;13.70;;;9.70;;
1380;SDS011;684;48.342;10.096;2023-06-22T06:14:03;16.10;;;8.57;;
1380;SDS011;684;48.342;10.096;2023-06-22T06:16:30;10.93;;;8.13;;
1380;SDS011;684;48.342;10.096;2023-06-22T06:18:57;10.87;;;8.13;;
1380;SDS011;684;48.342;10.096;2023-06-22T06:21:25;12.60;;;7.83;;
1380;SDS011;684;48.342;10.096;2023-06-22T06:23:52;12.93;;;8.27;;
1380;SDS011;684;48.342;10.096;2023-06-22T06:26:21;11.50;;;7.93;;
1380;SDS011;684;48.342;10.096;2023-06-22T06:28:53;10.10;;;6.87;;
1380;SDS011;684;48.342;10.096;2023-06-22T06:31:20;10.37;;;7.47;;
1380;SDS011;684;48.342;10.096;2023-06-22T06:33:47;11.23;;;8.73;;
1380;SDS011;684;48.342;10.096;2023-06-22T06:36:14;11.40;;;7.43;;
1380;SDS011;684;48.342;10.096;2023-06-22T06:38:42;11.10;;;7.10;;
1380;SDS011;684;48.342;10.096;2023-06-22T06:41:09;10.90;;;7.30;;
1380;SDS011;684;48.342;10.096;2023-06-22T06:43:36;13.00;;;7.77;;
1380;SDS011;684;48.342;10.096;2023-06-22T06:46:02;11.43;;;8.00;;
1380;SDS011;684;48.342;10.096;2023-06-22T06:48:29;12.03;;;7.10;;
1380;SDS011;684;48.342;10.096;2023-06-22T06:50:56;11.00;;;7.57;;
1380;SDS011;684;48.342;10.096;2023-06-22T06:53:23;9.90;;;7.40;;
1380;SDS011;684;48.342;10.096;2023-06-22T06:55:51;8.97;;;6.63;;
1380;SDS011;684;48.342;10.096;2023-06-22T06:58:17;10.50;;;8.03;;
1380;SDS011;684;48.342;10.096;2023-06-22T07:00:44;11.40;;;8.40;;
1380;SDS011;684;48.342;10.096;2023-06-22T07:03:11;10.30;;;7.70;;
1380;SDS011;684;48.342;10.096;2023-06-22T07:05:38;8.03;;;6.80;;
1380;SDS011;684;48.342;10.096;2023-06-22T07:08:04;8.60;;;6.53;;
1380;SDS011;684;48.342;10.096;2023-06-22T07:10:31;13.23;;;7.50;;
1380;SDS011;684;48.342;10.096;2023-06-22T07:12:59;12.50;;;6.93;;
1380;SDS011;684;48.342;10.096;2023-06-22T07:15:26;9.90;;;7.47;;
1380;SDS011;684;48.342;10.096;2023-06-22T07:17:53;8.30;;;6.60;;
1380;SDS011;684;48.342;10.096;2023-06-22T07:20:19;15.47;;;7.80;;
1380;SDS011;684;48.342;10.096;2023-06-22T07:22:46;11.10;;;7.03;;
1380;SDS011;684;48.342;10.096;2023-06-22T07:25:13;12.67;;;8.37;;
1380;SDS011;684;48.342;10.096;2023-06-22T07:27:42;12.13;;;7.70;;
1380;SDS011;684;48.342;10.096;2023-06-22T07:30:12;10.40;;;7.20;;
1380;SDS011;684;48.342;10.096;2023-06-22T07:32:40;13.20;;;7.13;;
1380;SDS011;684;48.342;10.096;2023-06-22T07:35:07;10.63;;;7.83;;
1380;SDS011;684;48.342;10.096;2023-06-22T07:37:34;10.33;;;8.27;;
1380;SDS011;684;48.342;10.096;2023-06-22T07:40:01;12.73;;;7.50;;
1380;SDS011;684;48.342;10.096;2023-06-22T07:42:31;12.67;;;7.83;;
1380;SDS011;684;48.342;10.096;2023-06-22T07:44:58;10.33;;;7.00;;
1380;SDS011;684;48.342;10.096;2023-06-22T07:47:26;9.40;;;7.20;;
1380;SDS011;684;48.342;10.096;2023-06-22T07:49:53;9.83;;;6.87;;
1380;SDS011;684;48.342;10.096;2023-06-22T07:52:22;12.37;;;7.87;;
1380;SDS011;684;48.342;10.096;2023-06-22T07:54:49;10.10;;;7.03;;
1380;SDS011;684;48.342;10.096;2023-06-22T07:57:16;10.17;;;7.60;;
1380;SDS011;684;48.342;10.096;2023-06-22T07:59:43;10.70;;;7.67;;
1380;SDS011;684;48.342;10.096;2023-06-22T08:02:10;9.50;;;6.80;;
1380;SDS011;684;48.342;10.096;2023-06-22T08:04:38;13.03;;;6.50;;
1380;SDS011;684;48.342;10.096;2023-06-22T08:07:06;9.00;;;7.67;;
1380;SDS011;684;48.342;10.096;2023-06-22T08:09:32;11.13;;;7.50;;
1380;SDS011;684;48.342;10.096;2023-06-22T08:11:59;8.57;;;7.17;;
1380;SDS011;684;48.342;10.096;2023-06-22T08:14:26;10.70;;;7.60;;
1380;SDS011;684;48.342;10.096;2023-06-22T08:16:53;9.10;;;7.10;;
1380;SDS011;684;48.342;10.096;2023-06-22T08:19:20;13.60;;;6.80;;
1380;SDS011;684;48.342;10.096;2023-06-22T08:21:48;11.50;;;7.20;;
1380;SDS011;684;48.342;10.096;2023-06-22T08:24:15;12.40;;;7.43;;
1380;SDS011;684;48.342;10.096;2023-06-22T08:26:42;12.23;;;8.07;;
1380;SDS011;684;48.342;10.096;2023-06-22T08:29:08;11.70;;;7.23;;
1380;SDS011;684;48.342;10.096;2023-06-22T08:31:35;10.03;;;7.90;;
1380;SDS011;684;48.342;10.096;2023-06-22T08:34:02;10.47;;;7.10;;
1380;SDS011;684;48.342;10.096;2023-06-22T08:36:29;10.97;;;7.50;;
1380;SDS011;684;48.342;10.096;2023-06-22T08:39:03;17.23;;;8.20;;
1380;SDS011;684;48.342;10.096;2023-06-22T08:41:30;10.83;;;7.97;;
1380;SDS011;684;48.342;10.096;2023-06-22T08:43:57;11.70;;;9.00;;
1380;SDS011;684;48.342;10.096;2023-06-22T08:46:24;10.23;;;7.80;;
1380;SDS011;684;48.342;10.096;2023-06-22T08:48:55;11.97;;;7.23;;
1380;SDS011;684;48.342;10.096;2023-06-22T08:51:22;12.63;;;6.60;;
1380;SDS011;684;48.342;10.096;2023-06-22T08:53:49;12.43;;;7.53;;
1380;SDS011;684;48.342;10.096;2023-06-22T08:56:17;12.63;;;7.40;;
1380;SDS011;684;48.342;10.096;2023-06-22T08:58:44;10.57;;;7.53;;
1380;SDS011;684;48.342;10.096;2023-06-22T09:01:11;9.73;;;7.23;;
1380;SDS011;684;48.342;10.096;2023-06-22T09:03:40;10.10;;;7.37;;
1380;SDS011;684;48.342;10.096;2023-06-22T09:06:07;10.17;;;7.90;;
1380;SDS011;684;48.342;10.096;2023-06-22T09:08:34;11.97;;;8.40;;
1380;SDS011;684;48.342;10.096;2023-06-22T09:11:01;10.63;;;7.13;;
1380;SDS011;684;48.342;10.096;2023-06-22T09:13:29;13.27;;;8.70;;
1380;SDS011;684;48.342;10.096;2023-06-22T09:15:57;10.43;;;7.63;;
1380;SDS011;684;48.342;10.096;2023-06-22T09:18:23;12.13;;;7.20;;
1380;SDS011;684;48.342;10.096;2023-06-22T09:20:50;9.77;;;7.30;;
1380;SDS011;684;48.342;10.096;2023-06-22T09:23:17;14.20;;;8.23;;
1380;SDS011;684;48.342;10.096;2023-06-22T09:25:44;11.10;;;8.17;;
1380;SDS011;684;48.342;10.096;2023-06-22T09:28:12;11.97;;;9.30;;
1380;SDS011;684;48.342;10.096;2023-06-22T09:30:40;12.13;;;8.33;;
1380;SDS011;684;48.342;10.096;2023-06-22T09:33:08;13.70;;;8.17;;
1380;SDS011;684;48.342;10.096;2023-06-22T09:35:35;14.73;;;8.67;;
1380;SDS011;684;48.342;10.096;2023-06-22T09:38:02;10.67;;;7.00;;
1380;SDS011;684;48.342;10.096;2023-06-22T09:40:29;13.60;;;7.10;;
1380;SDS011;684;48.342;10.096;2023-06-22T09:42:57;15.20;;;7.47;;
1380;SDS011;684;48.342;10.096;2023-06-22T09:45:24;18.03;;;7.93;;
1380;SDS011;684;48.342;10.096;2023-06-22T09:47:52;12.50;;;7.97;;
1380;SDS011;684;48.342;10.096;2023-06-22T09:50:19;13.43;;;7.40;;
1380;SDS011;684;48.342;10.096;2023-06-22T09:52:45;15.50;;;9.40;;
1380;SDS011;684;48.342;10.096;2023-06-22T09:55:15;12.47;;;8.73;;
1380;SDS011;684;48.342;10.096;2023-06-22T09:57:42;18.97;;;9.03;;
1380;SDS011;684;48.342;10.096;2023-06-22T10:00:09;13.57;;;8.50;;
1380;SDS011;684;48.342;10.096;2023-06-22T10:02:38;15.67;;;8.40;;
1380;SDS011;684;48.342;10.096;2023-06-22T10:05:06;16.70;;;9.17;;
1380;SDS011;684;48.342;10.096;2023-06-22T10:07:33;15.30;;;8.90;;
1380;SDS011;684;48.342;10.096;2023-06-22T10:10:05;13.50;;;8.80;;
1380;SDS011;684;48.342;10.096;2023-06-22T10:12:32;15.67;;;9.20;;
1380;SDS011;684;48.342;10.096;2023-06-22T10:14:58;16.37;;;9.07;;
1380;SDS011;684;48.342;10.096;2023-06-22T10:17:25;11.17;;;8.73;;
1380;SDS011;684;48.342;10.096;2023-06-22T10:19:52;18.43;;;9.10;;
1380;SDS011;684;48.342;10.096;2023-06-22T10:22:20;17.00;;;10.80;;
1380;SDS011;684;48.342;10.096;2023-06-22T10:24:47;13.47;;;9.87;;
1380;SDS011;684;48.342;10.096;2023-06-22T10:27:13;20.10;;;10.87;;
1380;SDS011;684;48.342;10.096;2023-06-22T10:29:40;13.30;;;9.23;;
1380;SDS011;684;48.342;10.096;2023-06-22T10:32:08;14.23;;;10.10;;
1380;SDS011;684;48.342;10.096;2023-06-22T10:34:34;14.73;;;9.70;;
1380;SDS011;684;48.342;10.096;2023-06-22T10:37:01;18.73;;;10.57;;
1380;SDS011;684;48.342;10.096;2023-06-22T10:39:29;16.03;;;10.57;;
1380;SDS011;684;48.342;10.096;2023-06-22T10:41:56;14.03;;;10.60;;
1380;SDS011;684;48.342;10.096;2023-06-22T10:44:22;21.70;;;10.80;;
1380;SDS011;684;48.342;10.096;2023-06-22T10:46:49;20.17;;;10.83;;
1380;SDS011;684;48.342;10.096;2023-06-22T10:49:16;14.53;;;10.10;;
1380;SDS011;684;48.342;10.096;2023-06-22T10:51:42;16.07;;;10.40;;
1380;SDS011;684;48.342;10.096;2023-06-22T10:54:09;18.13;;;10.57;;
1380;SDS011;684;48.342;10.096;2023-06-22T10:56:40;19.17;;;10.03;;
1380;SDS011;684;48.342;10.096;2023-06-22T10:59:07;16.10;;;10.23;;
1380;SDS011;684;48.342;10.096;2023-06-22T11:01:33;12.77;;;9.60;;
1380;SDS011;684;48.342;10.096;2023-06-22T11:04:00;17.67;;;9.87;;
1380;SDS011;684;48.342;10.096;2023-06-22T11:06:27;18.10;;;9.80;;
1380;SDS011;684;48.342;10.096;2023-06-22T11:08:53;16.13;;;10.60;;
1380;SDS011;684;48.342;10.096;2023-06-22T11:11:20;19.03;;;11.00;;
1380;SDS011;684;48.342;10.096;2023-06-22T11:13:48;12.77;;;9.00;;
1380;SDS011;684;48.342;10.096;2023-06-22T11:16:15;14.27;;;8.60;;
1380;SDS011;684;48.342;10.096;2023-06-22T11:18:42;15.30;;;8.50;;
1380;SDS011;684;48.342;10.096;2023-06-22T11:21:08;16.57;;;9.50;;
1380;SDS011;684;48.342;10.096;2023-06-22T11:23:35;18.60;;;9.13;;
1380;SDS011;684;48.342;10.096;2023-06-22T11:26:02;14.27;;;8.00;;
1380;SDS011;684;48.342;10.096;2023-06-22T11:28:28;13.83;;;9.03;;
1380;SDS011;684;48.342;10.096;2023-06-22T11:30:56;15.40;;;7.90;;
1380;SDS011;684;48.342;10.096;2023-06-22T11:33:23;14.40;;;7.83;;
1380;SDS011;684;48.342;10.096;2023-06-22T11:35:50;15.80;;;9.20;;
1380;SDS011;684;48.342;10.096;2023-06-22T11:38:17;16.97;;;8.77;;
1380;SDS011;684;48.342;10.096;2023-06-22T11:40:43;13.97;;;7.93;;
1380;SDS011;684;48.342;10.096;2023-06-22T11:43:10;16.80;;;8.37;;
1380;SDS011;684;48.342;10.096;2023-06-22T11:45:37;15.40;;;8.20;;
1380;SDS011;684;48.342;10.096;2023-06-22T11:48:05;13.70;;;7.80;;
1380;SDS011;684;48.342;10.096;2023-06-22T11:50:32;12.50;;;7.97;;
1380;SDS011;684;48.342;10.096;2023-06-22T11:53:01;15.70;;;9.40;;
1380;SDS011;684;48.342;10.096;2023-06-22T11:55:27;14.10;;;7.93;;
1380;SDS011;684;48.342;10.096;2023-06-22T11:57:54;15.27;;;8.53;;
1380;SDS011;684;48.342;10.096;2023-06-22T12:00:23;13.40;;;8.57;;
1380;SDS011;684;48.342;10.096;2023-06-22T12:02:50;16.50;;;8.63;;
1380;SDS011;684;48.342;10.096;2023-06-22T12:05:19;17.67;;;9.17;;
1380;SDS011;684;48.342;10.096;2023-06-22T12:07:46;17.60;;;7.87;;
1380;SDS011;684;48.342;10.096;2023-06-22T12:10:13;23.50;;;10.27;;
1380;SDS011;684;48.342;10.096;2023-06-22T12:12:40;15.80;;;8.40;;
1380;SDS011;684;48.342;10.096;2023-06-22T12:15:07;14.30;;;7.07;;
1380;SDS011;684;48.342;10.096;2023-06-22T12:17:35;15.07;;;8.50;;
1380;SDS011;684;48.342;10.096;2023-06-22T12:20:02;16.60;;;7.47;;
1380;SDS011;684;48.342;10.096;2023-06-22T12:22:31;11.43;;;7.00;;
1380;SDS011;684;48.342;10.096;2023-06-22T12:24:58;14.67;;;7.80;;
1380;SDS011;684;48.342;10.096;2023-06-22T12:27:25;15.70;;;7.40;;
1380;SDS011;684;48.342;10.096;2023-06-22T12:29:52;22.87;;;8.40;;
1380;SDS011;684;48.342;10.096;2023-06-22T12:32:18;15.60;;;7.97;;
1380;SDS011;684;48.342;10.096;2023-06-22T12:34:45;15.07;;;8.07;;
1380;SDS011;684;48.342;10.096;2023-06-22T12:37:12;17.30;;;9.30;;
1380;SDS011;684;48.342;10.096;2023-06-22T12:39:40;16.17;;;7.83;;
1380;SDS011;684;48.342;10.096;2023-06-22T12:42:07;13.77;;;7.97;;
1380;SDS011;684;48.342;10.096;2023-06-22T12:44:34;17.30;;;7.97;;
1380;SDS011;684;48.342;10.096;2023-06-22T12:47:01;20.00;;;8.63;;
1380;SDS011;684;48.342;10.096;2023-06-22T12:49:27;13.87;;;7.60;;
1380;SDS011;684;48.342;10.096;2023-06-22T12:51:54;14.70;;;6.93;;
1380;SDS011;684;48.342;10.096;2023-06-22T12:54:21;19.63;;;7.50;;
1380;SDS011;684;48.342;10.096;2023-06-22T12:56:49;14.57;;;7.53;;
1380;SDS011;684;48.342;10.096;2023-06-22T12:59:16;12.17;;;6.97;;
1380;SDS011;684;48.342;10.096;2023-06-22T13:01:43;19.03;;;7.87;;
1380;SDS011;684;48.342;10.096;2023-06-22T13:04:10;16.60;;;7.80;;
1380;SDS011;684;48.342;10.096;2023-06-22T13:06:39;11.60;;;6.93;;
1380;SDS011;684;48.342;10.096;2023-06-22T13:09:06;17.10;;;7.57;;
1380;SDS011;684;48.342;10.096;2023-06-22T13:11:33;16.80;;;7.33;;
1380;SDS011;684;48.342;10.096;2023-06-22T13:14:02;17.53;;;8.00;;
1380;SDS011;684;48.342;10.096;2023-06-22T13:16:28;17.63;;;8.23;;
1380;SDS011;684;48.342;10.096;2023-06-22T13:18:55;15.63;;;7.80;;
1380;SDS011;684;48.342;10.096;2023-06-22T13:21:22;19.50;;;8.83;;
1380;SDS011;684;48.342;10.096;2023-06-22T13:23:48;16.23;;;8.03;;
1380;SDS011;684;48.342;10.096;2023-06-22T13:26:15;16.50;;;8.50;;
1380;SDS011;684;48.342;10.096;2023-06-22T13:28:43;14.53;;;8.13;;
1380;SDS011;684;48.342;10.096;2023-06-22T13:31:12;17.70;;;8.80;;
1380;SDS011;684;48.342;10.096;2023-06-22T13:33:39;14.90;;;8.80;;
1380;SDS011;684;48.342;10.096;2023-06-22T13:36:06;14.40;;;8.23;;
1380;SDS011;684;48.342;10.096;2023-06-22T13:38:33;14.57;;;7.70;;
1380;SDS011;684;48.342;10.096;2023-06-22T13:41:03;24.33;;;8.20;;
1380;SDS011;684;48.342;10.096;2023-06-22T13:43:30;17.10;;;8.50;;
1380;SDS011;684;48.342;10.096;2023-06-22T13:45:57;15.70;;;9.07;;
1380;SDS011;684;48.342;10.096;2023-06-22T13:48:25;18.73;;;9.13;;
1380;SDS011;684;48.342;10.096;2023-06-22T13:50:53;17.97;;;8.10;;
1380;SDS011;684;48.342;10.096;2023-06-22T13:53:20;27.97;;;9.23;;
1380;SDS011;684;48.342;10.096;2023-06-22T13:55:47;17.33;;;8.60;;
1380;SDS011;684;48.342;10.096;2023-06-22T13:58:13;21.60;;;7.60;;
1380;SDS011;684;48.342;10.096;2023-06-22T14:00:40;15.07;;;7.47;;
1380;SDS011;684;48.342;10.096;2023-06-22T14:03:07;16.37;;;8.17;;
1380;SDS011;684;48.342;10.096;2023-06-22T14:05:35;16.93;;;7.27;;
1380;SDS011;684;48.342;10.096;2023-06-22T14:08:02;16.20;;;7.47;;
1380;SDS011;684;48.342;10.096;2023-06-22T14:10:28;14.43;;;7.47;;
1380;SDS011;684;48.342;10.096;2023-06-22T14:12:55;17.87;;;7.53;;
1380;SDS011;684;48.342;10.096;2023-06-22T14:15:22;13.90;;;7.03;;
1380;SDS011;684;48.342;10.096;2023-06-22T14:17:48;13.10;;;7.00;;
1380;SDS011;684;48.342;10.096;2023-06-22T14:20:15;14.13;;;7.50;;
1380;SDS011;684;48.342;10.096;2023-06-22T14:22:43;19.10;;;7.43;;
1380;SDS011;684;48.342;10.096;2023-06-22T14:25:10;14.93;;;6.20;;
1380;SDS011;684;48.342;10.096;2023-06-22T14:27:36;14.90;;;7.30;;
1380;SDS011;684;48.342;10.096;2023-06-22T14:30:04;17.63;;;7.03;;
1380;SDS011;684;48.342;10.096;2023-06-22T14:32:31;13.77;;;7.60;;
1380;SDS011;684;48.342;10.096;2023-06-22T14:34:58;16.30;;;8.07;;
1380;SDS011;684;48.342;10.096;2023-06-22T14:37:24;15.10;;;8.10;;
1380;SDS011;684;48.342;10.096;2023-06-22T14:39:52;14.83;;;8.00;;
1380;SDS011;684;48.342;10.096;2023-06-22T14:42:19;14.63;;;7.73;;
1380;SDS011;684;48.342;10.096;2023-06-22T14:44:47;13.43;;;8.47;;
1380;SDS011;684;48.342;10.096;2023-06-22T14:47:13;15.57;;;8.53;;
1380;SDS011;684;48.342;10.096;2023-06-22T14:49:43;14.03;;;8.23;;
1380;SDS011;684;48.342;10.096;2023-06-22T14:52:10;19.07;;;8.27;;
1380;SDS011;684;48.342;10.096;2023-06-22T14:54:36;28.13;;;18.53;;
1380;SDS011;684;48.342;10.096;2023-06-22T14:57:04;19.77;;;12.33;;